sensor_id;sensor_type;location;lat;lon;timestamp;pressure;altitude;pressure_sealevel;temperature;humidity
54306;BME280;66145;45.188;5.712;2023-08-20T00:01:22;99394.50;;;25.62;56.78
54306;BME280;66145;45.188;5.712;2023-08-20T00:03:50;99408.06;;;25.67;56.98
54306;BME280;66145;45.188;5.712;2023-08-20T00:06:16;99395.75;;;25.65;56.83
54306;BME280;66145;45.188;5.712;2023-08-20T00:08:41;99409.34;;;25.70;56.59
54306;BME280;66145;45.188;5.712;2023-08-20T00:11:07;99400.81;;;25.63;56.79
54306;BME280;66145;45.188;5.712;2023-08-20T00:13:32;99408.16;;;25.71;56.56
54306;BME280;66145;45.188;5.712;2023-08-20T00:15:57;99390.84;;;25.58;56.64
54306;BME280;66145;45.188;5.712;2023-08-20T00:18:23;99416.47;;;25.71;56.89
54306;BME280;66145;45.188;5.712;2023-08-20T00:20:49;99424.78;;;25.71;56.86
54306;BME280;66145;45.188;5.712;2023-08-20T00:23:14;99408.16;;;25.71;56.74
54306;BME280;66145;45.188;5.712;2023-08-20T00:25:40;99416.38;;;25.67;56.77
54306;BME280;66145;45.188;5.712;2023-08-20T00:28:05;99404.06;;;25.65;57.05
54306;BME280;66145;45.188;5.712;2023-08-20T00:30:31;99416.09;;;25.73;57.19
54306;BME280;66145;45.188;5.712;2023-08-20T00:32:56;99409.78;;;25.72;57.11
54306;BME280;66145;45.188;5.712;2023-08-20T00:35:21;99412.09;;;25.70;56.69
54306;BME280;66145;45.188;5.712;2023-08-20T00:37:47;99387.88;;;25.51;56.81
54306;BME280;66145;45.188;5.712;2023-08-20T00:40:12;99423.72;;;25.76;56.97
54306;BME280;66145;45.188;5.712;2023-08-20T00:42:38;99396.00;;;25.60;56.95
54306;BME280;66145;45.188;5.712;2023-08-20T00:45:04;99403.53;;;25.59;56.87
54306;BME280;66145;45.188;5.712;2023-08-20T00:47:29;99417.28;;;25.72;56.86
54306;BME280;66145;45.188;5.712;2023-08-20T00:49:55;99421.19;;;25.71;57.12
54306;BME280;66145;45.188;5.712;2023-08-20T00:52:21;99417.63;;;25.70;57.03
54306;BME280;66145;45.188;5.712;2023-08-20T00:54:47;99417.34;;;25.75;57.03
54306;BME280;66145;45.188;5.712;2023-08-20T00:57:14;99402.09;;;25.65;56.82
54306;BME280;66145;45.188;5.712;2023-08-20T00:59:43;99423.25;;;25.74;56.84
54306;BME280;66145;45.188;5.712;2023-08-20T01:02:09;99427.19;;;25.73;56.95
54306;BME280;66145;45.188;5.712;2023-08-20T01:04:35;99426.41;;;25.72;56.84
54306;BME280;66145;45.188;5.712;2023-08-20T01:07:03;99430.78;;;25.73;57.00
54306;BME280;66145;45.188;5.712;2023-08-20T01:09:50;99437.56;;;25.76;56.83
54306;BME280;66145;45.188;5.712;2023-08-20T01:12:17;99398.16;;;25.50;57.03
54306;BME280;66145;45.188;5.712;2023-08-20T01:14:42;99435.94;;;25.75;57.06
54306;BME280;66145;45.188;5.712;2023-08-20T01:17:08;99437.09;;;25.74;57.24
54306;BME280;66145;45.188;5.712;2023-08-20T01:19:33;99442.19;;;25.72;57.22
54306;BME280;66145;45.188;5.712;2023-08-20T01:30:10;99449.44;;;25.76;57.11
54306;BME280;66145;45.188;5.712;2023-08-20T01:32:36;99437.09;;;25.74;57.26
54306;BME280;66145;45.188;5.712;2023-08-20T01:35:03;99443.03;;;25.72;56.99
54306;BME280;66145;45.188;5.712;2023-08-20T01:37:28;99420.59;;;25.61;56.88
54306;BME280;66145;45.188;5.712;2023-08-20T01:39:53;99434.78;;;25.76;57.07
54306;BME280;66145;45.188;5.712;2023-08-20T01:42:19;99445.88;;;25.76;56.85
54306;BME280;66145;45.188;5.712;2023-08-20T01:44:44;99449.44;;;25.76;57.21
54306;BME280;66145;45.188;5.712;2023-08-20T01:47:09;99446.66;;;25.76;57.10
54306;BME280;66145;45.188;5.712;2023-08-20T01:49:35;99449.53;;;25.80;56.75
54306;BME280;66145;45.188;5.712;2023-08-20T01:52:00;99454.72;;;25.81;56.80
54306;BME280;66145;45.188;5.712;2023-08-20T01:54:26;99443.81;;;25.73;57.11
54306;BME280;66145;45.188;5.712;2023-08-20T01:56:51;99453.47;;;25.79;57.04
54306;BME280;66145;45.188;5.712;2023-08-20T01:59:16;99466.16;;;25.80;56.99
54306;BME280;66145;45.188;5.712;2023-08-20T02:01:43;99463.72;;;25.78;56.83
54306;BME280;66145;45.188;5.712;2023-08-20T02:04:09;99462.50;;;25.76;57.30
54306;BME280;66145;45.188;5.712;2023-08-20T02:06:34;99459.34;;;25.77;57.07
54306;BME280;66145;45.188;5.712;2023-08-20T02:08:59;99454.56;;;25.74;57.17
54306;BME280;66145;45.188;5.712;2023-08-20T02:11:25;99461.34;;;25.77;57.01
54306;BME280;66145;45.188;5.712;2023-08-20T02:13:50;99459.72;;;25.76;57.20
54306;BME280;66145;45.188;5.712;2023-08-20T02:16:15;99456.41;;;25.70;57.08
54306;BME280;66145;45.188;5.712;2023-08-20T02:18:42;99447.13;;;25.62;57.47
54306;BME280;66145;45.188;5.712;2023-08-20T02:21:07;99466.50;;;25.78;57.36
54306;BME280;66145;45.188;5.712;2023-08-20T02:23:33;99455.25;;;25.71;56.92
54306;BME280;66145;45.188;5.712;2023-08-20T02:25:58;99467.66;;;25.77;57.28
54306;BME280;66145;45.188;5.712;2023-08-20T02:28:23;99457.66;;;25.73;57.33
54306;BME280;66145;45.188;5.712;2023-08-20T02:30:49;99473.19;;;25.77;57.23
54306;BME280;66145;45.188;5.712;2023-08-20T02:33:14;99456.88;;;25.72;57.32
54306;BME280;66145;45.188;5.712;2023-08-20T02:35:40;99467.03;;;25.84;57.04
54306;BME280;66145;45.188;5.712;2023-08-20T02:38:06;99460.25;;;25.81;57.02
54306;BME280;66145;45.188;5.712;2023-08-20T02:40:31;99457.75;;;25.76;57.22
54306;BME280;66145;45.188;5.712;2023-08-20T02:42:57;99475.72;;;25.83;57.41
54306;BME280;66145;45.188;5.712;2023-08-20T02:45:23;99463.41;;;25.80;56.99
54306;BME280;66145;45.188;5.712;2023-08-20T02:47:49;99459.34;;;25.77;57.52
54306;BME280;66145;45.188;5.712;2023-08-20T02:50:14;99464.63;;;25.83;57.32
54306;BME280;66145;45.188;5.712;2023-08-20T02:52:42;99457.31;;;25.74;57.34
54306;BME280;66145;45.188;5.712;2023-08-20T02:55:07;99458.56;;;25.77;57.36
54306;BME280;66145;45.188;5.712;2023-08-20T02:57:33;99462.13;;;25.77;57.68
54306;BME280;66145;45.188;5.712;2023-08-20T02:59:58;99465.72;;;25.78;57.21
54306;BME280;66145;45.188;5.712;2023-08-20T03:02:24;99471.78;;;25.84;57.12
54306;BME280;66145;45.188;5.712;2023-08-20T03:04:49;99465.44;;;25.83;57.47
54306;BME280;66145;45.188;5.712;2023-08-20T03:07:14;99460.16;;;25.78;57.43
54306;BME280;66145;45.188;5.712;2023-08-20T03:09:40;99444.00;;;25.64;57.12
54306;BME280;66145;45.188;5.712;2023-08-20T03:12:05;99466.25;;;25.84;57.11
54306;BME280;66145;45.188;5.712;2023-08-20T03:14:31;99465.88;;;25.85;57.10
54306;BME280;66145;45.188;5.712;2023-08-20T03:16:56;99462.56;;;25.79;57.42
54306;BME280;66145;45.188;5.712;2023-08-20T03:19:21;99459.72;;;25.76;57.46
54306;BME280;66145;45.188;5.712;2023-08-20T03:21:47;99449.88;;;25.78;57.55
54306;BME280;66145;45.188;5.712;2023-08-20T03:24:12;99472.25;;;25.86;57.36
54306;BME280;66145;45.188;5.712;2023-08-20T03:26:37;99473.72;;;25.83;57.16
54306;BME280;66145;45.188;5.712;2023-08-20T03:29:03;99472.94;;;25.83;57.42
54306;BME280;66145;45.188;5.712;2023-08-20T03:31:28;99471.34;;;25.81;57.43
54306;BME280;66145;45.188;5.712;2023-08-20T03:33:54;99459.28;;;25.74;57.61
54306;BME280;66145;45.188;5.712;2023-08-20T03:36:19;99462.22;;;25.81;57.33
54306;BME280;66145;45.188;5.712;2023-08-20T03:38:44;99471.78;;;25.84;57.21
54306;BME280;66145;45.188;5.712;2023-08-20T03:41:10;99459.81;;;25.79;57.22
54306;BME280;66145;45.188;5.712;2023-08-20T03:43:36;99470.53;;;25.81;57.26
54306;BME280;66145;45.188;5.712;2023-08-20T03:46:01;99470.09;;;25.79;57.24
54306;BME280;66145;45.188;5.712;2023-08-20T03:48:27;99456.94;;;25.76;57.31
54306;BME280;66145;45.188;5.712;2023-08-20T03:50:52;99477.69;;;25.82;57.33
54306;BME280;66145;45.188;5.712;2023-08-20T03:53:18;99477.69;;;25.82;57.67
54306;BME280;66145;45.188;5.712;2023-08-20T03:55:49;99471.59;;;25.76;57.21
54306;BME280;66145;45.188;5.712;2023-08-20T03:58:16;99484.03;;;25.83;57.37
54306;BME280;66145;45.188;5.712;2023-08-20T04:00:41;99490.72;;;25.81;57.29
54306;BME280;66145;45.188;5.712;2023-08-20T04:03:07;99486.72;;;25.79;57.13
54306;BME280;66145;45.188;5.712;2023-08-20T04:05:36;99487.97;;;25.81;57.26
54306;BME280;66145;45.188;5.712;2023-08-20T04:08:02;99488.03;;;25.85;57.35
54306;BME280;66145;45.188;5.712;2023-08-20T04:10:27;99488.66;;;25.78;57.02
54306;BME280;66145;45.188;5.712;2023-08-20T04:12:53;99475.44;;;25.72;57.61
54306;BME280;66145;45.188;5.712;2023-08-20T04:15:18;99486.25;;;25.77;57.28
54306;BME280;66145;45.188;5.712;2023-08-20T04:17:43;99492.78;;;25.85;57.50
54306;BME280;66145;45.188;5.712;2023-08-20T04:20:09;99472.22;;;25.70;57.63
54306;BME280;66145;45.188;5.712;2023-08-20T04:22:34;99493.75;;;25.76;57.21
54306;BME280;66145;45.188;5.712;2023-08-20T04:25:00;99497.50;;;25.84;57.37
54306;BME280;66145;45.188;5.712;2023-08-20T04:27:25;99496.63;;;25.80;57.32
54306;BME280;66145;45.188;5.712;2023-08-20T04:29:50;99501.03;;;25.81;57.35
54306;BME280;66145;45.188;5.712;2023-08-20T04:32:16;99492.97;;;25.76;57.15
54306;BME280;66145;45.188;5.712;2023-08-20T04:34:41;99508.97;;;25.83;57.39
54306;BME280;66145;45.188;5.712;2023-08-20T04:37:06;99506.44;;;25.77;57.02
54306;BME280;66145;45.188;5.712;2023-08-20T04:39:32;99517.97;;;25.79;57.43
54306;BME280;66145;45.188;5.712;2023-08-20T04:41:57;99525.22;;;25.84;57.50
54306;BME280;66145;45.188;5.712;2023-08-20T04:44:22;99513.34;;;25.84;57.58
54306;BME280;66145;45.188;5.712;2023-08-20T04:46:48;99532.03;;;25.87;57.39
54306;BME280;66145;45.188;5.712;2023-08-20T04:49:13;99508.34;;;25.73;57.58
54306;BME280;66145;45.188;5.712;2023-08-20T04:51:38;99530.06;;;25.87;57.52
54306;BME280;66145;45.188;5.712;2023-08-20T04:54:04;99519.59;;;25.80;57.46
54306;BME280;66145;45.188;5.712;2023-08-20T04:56:29;99504.31;;;25.71;57.51
54306;BME280;66145;45.188;5.712;2023-08-20T04:58:54;99504.31;;;25.71;57.21
54306;BME280;66145;45.188;5.712;2023-08-20T05:01:20;99495.69;;;25.60;57.34
54306;BME280;66145;45.188;5.712;2023-08-20T05:03:45;99530.34;;;25.82;57.66
54306;BME280;66145;45.188;5.712;2023-08-20T05:06:10;99514.66;;;25.74;57.04
54306;BME280;66145;45.188;5.712;2023-08-20T05:08:36;99531.38;;;25.77;57.33
54306;BME280;66145;45.188;5.712;2023-08-20T05:11:01;99540.22;;;25.83;57.10
54306;BME280;66145;45.188;5.712;2023-08-20T05:13:26;99527.00;;;25.76;57.18
54306;BME280;66145;45.188;5.712;2023-08-20T05:15:52;99547.84;;;25.86;57.43
54306;BME280;66145;45.188;5.712;2023-08-20T05:18:17;99544.19;;;25.82;57.39
54306;BME280;66145;45.188;5.712;2023-08-20T05:20:42;99550.97;;;25.85;57.51
54306;BME280;66145;45.188;5.712;2023-08-20T05:23:08;99557.31;;;25.85;57.54
54306;BME280;66145;45.188;5.712;2023-08-20T05:25:33;99543.63;;;25.76;57.30
54306;BME280;66145;45.188;5.712;2023-08-20T05:27:58;99533.97;;;25.70;57.24
54306;BME280;66145;45.188;5.712;2023-08-20T05:30:26;99556.44;;;25.81;57.56
54306;BME280;66145;45.188;5.712;2023-08-20T05:32:51;99556.50;;;25.85;57.67
54306;BME280;66145;45.188;5.712;2023-08-20T05:35:17;99560.00;;;25.81;57.55
54306;BME280;66145;45.188;5.712;2023-08-20T05:37:42;99544.78;;;25.75;57.27
54306;BME280;66145;45.188;5.712;2023-08-20T05:40:08;99558.84;;;25.83;57.71
54306;BME280;66145;45.188;5.712;2023-08-20T05:42:34;99555.28;;;25.82;57.32
54306;BME280;66145;45.188;5.712;2023-08-20T05:44:59;99557.13;;;25.78;57.81
54306;BME280;66145;45.188;5.712;2023-08-20T05:47:25;99554.69;;;25.76;57.83
54306;BME280;66145;45.188;5.712;2023-08-20T05:49:50;99573.13;;;25.85;57.71
54306;BME280;66145;45.188;5.712;2023-08-20T05:52:15;99561.53;;;25.79;57.55
54306;BME280;66145;45.188;5.712;2023-08-20T05:54:41;99575.47;;;25.83;57.74
54306;BME280;66145;45.188;5.712;2023-08-20T05:57:06;99573.84;;;25.81;57.59
54306;BME280;66145;45.188;5.712;2023-08-20T05:59:32;99573.47;;;25.83;57.58
54306;BME280;66145;45.188;5.712;2023-08-20T06:01:57;99559.44;;;25.76;57.79
54306;BME280;66145;45.188;5.712;2023-08-20T06:04:22;99573.47;;;25.83;57.65
54306;BME280;66145;45.188;5.712;2023-08-20T06:06:48;99571.06;;;25.81;57.65
54306;BME280;66145;45.188;5.712;2023-08-20T06:09:13;99575.47;;;25.83;57.74
54306;BME280;66145;45.188;5.712;2023-08-20T06:11:38;99569.56;;;25.84;57.43
54306;BME280;66145;45.188;5.712;2023-08-20T06:14:04;99567.06;;;25.79;57.38
54306;BME280;66145;45.188;5.712;2023-08-20T06:16:29;99576.69;;;25.85;57.70
54306;BME280;66145;45.188;5.712;2023-08-20T06:18:54;99566.59;;;25.77;57.73
54306;BME280;66145;45.188;5.712;2023-08-20T06:21:20;99583.06;;;25.86;57.91
54306;BME280;66145;45.188;5.712;2023-08-20T06:23:45;99575.00;;;25.80;57.36
54306;BME280;66145;45.188;5.712;2023-08-20T06:26:10;99592.16;;;25.86;57.35
54306;BME280;66145;45.188;5.712;2023-08-20T06:28:36;99579.84;;;25.84;57.27
54306;BME280;66145;45.188;5.712;2023-08-20T06:31:02;99569.00;;;25.78;57.84
54306;BME280;66145;45.188;5.712;2023-08-20T06:33:27;99575.72;;;25.77;57.73
54306;BME280;66145;45.188;5.712;2023-08-20T06:35:52;99582.78;;;25.75;57.45
54306;BME280;66145;45.188;5.712;2023-08-20T06:38:18;99578.53;;;25.65;57.56
54306;BME280;66145;45.188;5.712;2023-08-20T06:40:43;99585.44;;;25.71;57.32
54306;BME280;66145;45.188;5.712;2023-08-20T06:43:08;99579.22;;;25.74;57.55
54306;BME280;66145;45.188;5.712;2023-08-20T06:45:34;99593.16;;;25.78;57.43
54306;BME280;66145;45.188;5.712;2023-08-20T06:47:59;99590.38;;;25.78;57.37
54306;BME280;66145;45.188;5.712;2023-08-20T06:50:24;99571.59;;;25.71;57.64
54306;BME280;66145;45.188;5.712;2023-08-20T06:52:50;99579.53;;;25.73;57.27
54306;BME280;66145;45.188;5.712;2023-08-20T06:55:15;99584.84;;;25.78;57.54
54306;BME280;66145;45.188;5.712;2023-08-20T06:57:40;99581.06;;;25.70;57.40
54306;BME280;66145;45.188;5.712;2023-08-20T07:00:06;99581.25;;;25.77;57.33
54306;BME280;66145;45.188;5.712;2023-08-20T07:02:32;99585.19;;;25.76;57.16
54306;BME280;66145;45.188;5.712;2023-08-20T07:04:57;99586.78;;;25.77;57.50
54306;BME280;66145;45.188;5.712;2023-08-20T07:07:23;99581.16;;;25.74;57.08
54306;BME280;66145;45.188;5.712;2023-08-20T07:09:48;99566.75;;;25.68;57.32
54306;BME280;66145;45.188;5.712;2023-08-20T07:12:13;99586.09;;;25.80;57.03
54306;BME280;66145;45.188;5.712;2023-08-20T07:14:39;99593.00;;;25.87;57.30
54306;BME280;66145;45.188;5.712;2023-08-20T07:17:04;99582.84;;;25.78;57.27
54306;BME280;66145;45.188;5.712;2023-08-20T07:19:30;99591.00;;;25.71;56.80
54306;BME280;66145;45.188;5.712;2023-08-20T07:21:56;99593.09;;;25.62;56.21
54306;BME280;66145;45.188;5.712;2023-08-20T07:24:21;99585.41;;;25.55;55.47
54306;BME280;66145;45.188;5.712;2023-08-20T07:26:54;99573.09;;;25.40;55.49
54306;BME280;66145;45.188;5.712;2023-08-20T07:29:25;99577.59;;;25.45;55.12
54306;BME280;66145;45.188;5.712;2023-08-20T07:31:52;99589.59;;;25.49;54.80
54306;BME280;66145;45.188;5.712;2023-08-20T07:34:17;99583.59;;;25.47;54.58
54306;BME280;66145;45.188;5.712;2023-08-20T07:36:43;99587.06;;;25.44;54.59
54306;BME280;66145;45.188;5.712;2023-08-20T07:39:09;99548.34;;;25.19;54.36
54306;BME280;66145;45.188;5.712;2023-08-20T07:41:34;99594.69;;;25.47;54.33
54306;BME280;66145;45.188;5.712;2023-08-20T07:44:00;99589.84;;;25.44;54.47
54306;BME280;66145;45.188;5.712;2023-08-20T07:46:25;99585.31;;;25.39;54.27
54306;BME280;66145;45.188;5.712;2023-08-20T07:48:51;99596.03;;;25.41;54.39
54306;BME280;66145;45.188;5.712;2023-08-20T07:51:16;99567.94;;;25.26;54.34
54306;BME280;66145;45.188;5.712;2023-08-20T07:53:41;99578.88;;;25.35;54.15
54306;BME280;66145;45.188;5.712;2023-08-20T07:56:07;99577.50;;;25.29;54.48
54306;BME280;66145;45.188;5.712;2023-08-20T07:58:34;99585.19;;;25.35;54.28
54306;BME280;66145;45.188;5.712;2023-08-20T08:01:01;99592.81;;;25.39;54.32
54306;BME280;66145;45.188;5.712;2023-08-20T08:03:29;99580.25;;;25.29;54.37
54306;BME280;66145;45.188;5.712;2023-08-20T08:05:55;99573.13;;;25.28;54.28
54306;BME280;66145;45.188;5.712;2023-08-20T08:08:21;99585.56;;;25.34;54.59
54306;BME280;66145;45.188;5.712;2023-08-20T08:10:46;99590.75;;;25.35;54.42
54306;BME280;66145;45.188;5.712;2023-08-20T08:13:13;99581.53;;;25.31;54.53
54306;BME280;66145;45.188;5.712;2023-08-20T08:15:39;99569.78;;;25.22;54.29
54306;BME280;66145;45.188;5.712;2023-08-20T08:18:06;99585.66;;;25.38;54.57
54306;BME280;66145;45.188;5.712;2023-08-20T08:20:32;99590.75;;;25.35;54.84
54306;BME280;66145;45.188;5.712;2023-08-20T08:22:58;99591.56;;;25.36;54.99
54306;BME280;66145;45.188;5.712;2023-08-20T08:25:23;99572.31;;;25.27;55.01
54306;BME280;66145;45.188;5.712;2023-08-20T08:27:49;99582.44;;;25.35;55.18
54306;BME280;66145;45.188;5.712;2023-08-20T08:30:17;99580.84;;;25.34;54.93
54306;BME280;66145;45.188;5.712;2023-08-20T08:32:43;99562.16;;;25.31;54.80
54306;BME280;66145;45.188;5.712;2023-08-20T08:35:08;99571.59;;;25.43;54.67
54306;BME280;66145;45.188;5.712;2023-08-20T08:37:33;99570.00;;;25.42;55.26
54306;BME280;66145;45.188;5.712;2023-08-20T08:39:59;99555.81;;;25.31;55.17
54306;BME280;66145;45.188;5.712;2023-08-20T08:42:25;99570.66;;;25.39;55.30
54306;BME280;66145;45.188;5.712;2023-08-20T08:44:50;99568.59;;;25.35;54.81
54306;BME280;66145;45.188;5.712;2023-08-20T08:47:21;99580.13;;;25.38;54.87
54306;BME280;66145;45.188;5.712;2023-08-20T08:49:48;99579.41;;;25.41;55.30
54306;BME280;66145;45.188;5.712;2023-08-20T08:52:15;99557.78;;;25.30;55.01
54306;BME280;66145;45.188;5.712;2023-08-20T08:54:40;99560.28;;;25.35;54.97
54306;BME280;66145;45.188;5.712;2023-08-20T08:57:06;99553.75;;;25.28;54.88
54306;BME280;66145;45.188;5.712;2023-08-20T08:59:32;99548.47;;;25.23;55.12
54306;BME280;66145;45.188;5.712;2023-08-20T09:01:57;99547.31;;;25.24;55.07
54306;BME280;66145;45.188;5.712;2023-08-20T09:04:23;99551.78;;;25.28;55.62
54306;BME280;66145;45.188;5.712;2023-08-20T09:06:52;99560.88;;;25.29;55.24
54306;BME280;66145;45.188;5.712;2023-08-20T09:09:20;99541.31;;;25.21;55.30
54306;BME280;66145;45.188;5.712;2023-08-20T09:11:46;99561.91;;;25.36;55.13
54306;BME280;66145;45.188;5.712;2023-08-20T09:14:28;99546.25;;;25.28;55.07
54306;BME280;66145;45.188;5.712;2023-08-20T09:16:59;99554.31;;;25.33;55.20
54306;BME280;66145;45.188;5.712;2023-08-20T09:19:28;99519.41;;;25.16;55.35
54306;BME280;66145;45.188;5.712;2023-08-20T09:21:55;99541.09;;;25.27;55.45
54306;BME280;66145;45.188;5.712;2023-08-20T09:24:33;99548.06;;;25.36;55.52
54306;BME280;66145;45.188;5.712;2023-08-20T09:27:03;99551.66;;;25.37;55.32
54306;BME280;66145;45.188;5.712;2023-08-20T09:29:31;99539.31;;;25.34;55.24
54306;BME280;66145;45.188;5.712;2023-08-20T09:32:01;99544.84;;;25.34;55.48
54306;BME280;66145;45.188;5.712;2023-08-20T09:34:36;99543.69;;;25.35;55.18
54306;BME280;66145;45.188;5.712;2023-08-20T09:37:03;99538.41;;;25.30;55.39
54306;BME280;66145;45.188;5.712;2023-08-20T09:39:28;99519.97;;;25.22;55.20
54306;BME280;66145;45.188;5.712;2023-08-20T09:41:55;99541.72;;;25.36;55.37
54306;BME280;66145;45.188;5.712;2023-08-20T09:44:23;99546.44;;;25.35;55.37
54306;BME280;66145;45.188;5.712;2023-08-20T09:46:49;99523.41;;;25.31;55.30
54306;BME280;66145;45.188;5.712;2023-08-20T09:49:17;99522.94;;;25.29;55.16
54306;BME280;66145;45.188;5.712;2023-08-20T09:51:47;99531.00;;;25.34;55.31
54306;BME280;66145;45.188;5.712;2023-08-20T09:54:34;99529.84;;;25.35;55.52
54306;BME280;66145;45.188;5.712;2023-08-20T09:57:01;99535.38;;;25.35;56.05
54306;BME280;66145;45.188;5.712;2023-08-20T09:59:28;99512.81;;;25.21;56.45
54306;BME280;66145;45.188;5.712;2023-08-20T10:01:55;99500.75;;;25.13;56.15
54306;BME280;66145;45.188;5.712;2023-08-20T10:04:22;99501.19;;;25.15;56.60
54306;BME280;66145;45.188;5.712;2023-08-20T10:06:49;99518.66;;;25.32;56.78
54306;BME280;66145;45.188;5.712;2023-08-20T10:09:16;99526.81;;;25.41;56.98
54306;BME280;66145;45.188;5.712;2023-08-20T10:11:43;99517.72;;;25.40;57.30
54306;BME280;66145;45.188;5.712;2023-08-20T10:14:08;99515.28;;;25.39;57.46
54306;BME280;66145;45.188;5.712;2023-08-20T10:16:34;99531.53;;;25.53;57.49
54306;BME280;66145;45.188;5.712;2023-08-20T10:19:03;99518.94;;;25.55;57.91
54306;BME280;66145;45.188;5.712;2023-08-20T10:21:31;99512.31;;;25.60;58.05
54306;BME280;66145;45.188;5.712;2023-08-20T10:24:03;99515.53;;;25.62;57.97
54306;BME280;66145;45.188;5.712;2023-08-20T10:26:28;99505.28;;;25.62;58.20
54306;BME280;66145;45.188;5.712;2023-08-20T10:31:57;99480.88;;;25.52;58.22
54306;BME280;66145;45.188;5.712;2023-08-20T10:34:32;99500.75;;;25.70;57.75
54306;BME280;66145;45.188;5.712;2023-08-20T10:37:02;99498.69;;;25.67;57.78
54306;BME280;66145;45.188;5.712;2023-08-20T10:39:28;99499.91;;;25.70;57.94
54306;BME280;66145;45.188;5.712;2023-08-20T10:42:29;99503.78;;;25.81;57.81
54306;BME280;66145;45.188;5.712;2023-08-20T10:45:06;99496.53;;;25.76;57.75
54306;BME280;66145;45.188;5.712;2023-08-20T10:50:07;99483.56;;;25.80;57.45
54306;BME280;66145;45.188;5.712;2023-08-20T10:52:38;99492.16;;;25.91;57.34
54306;BME280;66145;45.188;5.712;2023-08-20T10:55:03;99482.94;;;25.87;57.10
54306;BME280;66145;45.188;5.712;2023-08-20T10:57:34;99489.13;;;25.96;57.16
54306;BME280;66145;45.188;5.712;2023-08-20T11:00:02;99477.69;;;25.98;57.36
54306;BME280;66145;45.188;5.712;2023-08-20T11:02:32;99462.41;;;25.88;57.30
54306;BME280;66145;45.188;5.712;2023-08-20T11:04:58;99474.81;;;25.94;57.26
54306;BME280;66145;45.188;5.712;2023-08-20T11:07:24;99451.31;;;25.88;56.97
54306;BME280;66145;45.188;5.712;2023-08-20T11:09:52;99455.44;;;25.94;56.62
54306;BME280;66145;45.188;5.712;2023-08-20T11:12:20;99450.22;;;25.93;56.85
54306;BME280;66145;45.188;5.712;2023-08-20T11:14:46;99466.69;;;26.02;56.85
54306;BME280;66145;45.188;5.712;2023-08-20T11:17:11;99448.28;;;25.93;56.52
54306;BME280;66145;45.188;5.712;2023-08-20T11:19:37;99437.84;;;25.87;56.37
54306;BME280;66145;45.188;5.712;2023-08-20T11:22:03;99458.34;;;26.02;56.30
54306;BME280;66145;45.188;5.712;2023-08-20T11:24:29;99452.81;;;26.02;56.49
54306;BME280;66145;45.188;5.712;2023-08-20T11:26:54;99454.28;;;25.95;56.30
54306;BME280;66145;45.188;5.712;2023-08-20T11:29:20;99447.56;;;25.96;56.33
54306;BME280;66145;45.188;5.712;2023-08-20T11:31:47;99436.66;;;25.88;56.15
54306;BME280;66145;45.188;5.712;2023-08-20T11:34:12;99448.28;;;25.93;56.32
54306;BME280;66145;45.188;5.712;2023-08-20T11:36:41;99449.19;;;25.98;56.44
54306;BME280;66145;45.188;5.712;2023-08-20T11:39:07;99440.31;;;25.92;56.50
54306;BME280;66145;45.188;5.712;2023-08-20T11:41:36;99440.75;;;25.94;56.69
54306;BME280;66145;45.188;5.712;2023-08-20T11:44:02;99411.09;;;25.78;56.22
54306;BME280;66145;45.188;5.712;2023-08-20T11:46:28;99421.09;;;25.83;56.46
54306;BME280;66145;45.188;5.712;2023-08-20T11:51:35;99423.97;;;25.87;56.43
54306;BME280;66145;45.188;5.712;2023-08-20T11:54:02;99409.22;;;25.83;56.23
54306;BME280;66145;45.188;5.712;2023-08-20T11:56:29;99408.78;;;25.80;56.61
54306;BME280;66145;45.188;5.712;2023-08-20T11:58:59;99428.34;;;25.88;56.36
54306;BME280;66145;45.188;5.712;2023-08-20T12:01:24;99412.00;;;25.83;56.39
54306;BME280;66145;45.188;5.712;2023-08-20T12:03:50;99398.69;;;25.72;56.63
54306;BME280;66145;45.188;5.712;2023-08-20T12:06:18;99418.00;;;25.85;56.54
54306;BME280;66145;45.188;5.712;2023-08-20T12:08:44;99411.09;;;25.78;56.48
54306;BME280;66145;45.188;5.712;2023-08-20T12:11:10;99414.31;;;25.80;56.41
54306;BME280;66145;45.188;5.712;2023-08-20T12:13:35;99387.97;;;25.71;56.41
54306;BME280;66145;45.188;5.712;2023-08-20T12:16:00;99404.41;;;25.79;56.46
54306;BME280;66145;45.188;5.712;2023-08-20T12:18:26;99385.19;;;25.71;56.79
54306;BME280;66145;45.188;5.712;2023-08-20T12:20:51;99403.50;;;25.75;56.32
54306;BME280;66145;45.188;5.712;2023-08-20T12:23:16;99389.03;;;25.66;56.12
54306;BME280;66145;45.188;5.712;2023-08-20T12:25:42;99391.56;;;25.71;56.61
54306;BME280;66145;45.188;5.712;2023-08-20T12:28:07;99396.72;;;25.73;56.60
54306;BME280;66145;45.188;5.712;2023-08-20T12:30:33;99371.91;;;25.60;56.57
54306;BME280;66145;45.188;5.712;2023-08-20T12:33:01;99384.75;;;25.69;56.77
54306;BME280;66145;45.188;5.712;2023-08-20T12:35:28;99380.72;;;25.66;56.82
54306;BME280;66145;45.188;5.712;2023-08-20T12:37:54;99378.50;;;25.72;56.69
54306;BME280;66145;45.188;5.712;2023-08-20T12:40:19;99380.03;;;25.69;56.73
54306;BME280;66145;45.188;5.712;2023-08-20T12:42:44;99361.19;;;25.59;56.64
54306;BME280;66145;45.188;5.712;2023-08-20T12:45:10;99380.81;;;25.70;56.72
54306;BME280;66145;45.188;5.712;2023-08-20T12:47:35;99376.88;;;25.71;56.17
54306;BME280;66145;45.188;5.712;2023-08-20T12:50:01;99369.66;;;25.66;56.42
54306;BME280;66145;45.188;5.712;2023-08-20T12:52:29;99371.72;;;25.69;56.33
54306;BME280;66145;45.188;5.712;2023-08-20T12:54:55;99362.16;;;25.66;56.38
54306;BME280;66145;45.188;5.712;2023-08-20T12:57:20;99350.44;;;25.57;56.51
54306;BME280;66145;45.188;5.712;2023-08-20T12:59:45;99331.78;;;25.54;56.38
54306;BME280;66145;45.188;5.712;2023-08-20T13:02:11;99360.16;;;25.83;56.11
54306;BME280;66145;45.188;5.712;2023-08-20T13:04:37;99330.94;;;25.70;56.25
54306;BME280;66145;45.188;5.712;2023-08-20T13:07:03;99317.03;;;25.66;56.26
54306;BME280;66145;45.188;5.712;2023-08-20T13:09:29;99344.28;;;25.80;56.54
54306;BME280;66145;45.188;5.712;2023-08-20T13:11:56;99337.97;;;25.83;56.29